ユジノサハリンスク の空港の天気 - METARとTAF

ホムトヴォ空港(ユジノサハリンスク) ( UHSS / UUS ) - ロシア ユジノサハリンスク
飛行場実況気象(Metar)
観測時間10/16 16:30 VLAT (10/16 06:30 UTC)
風向・風速西南西 4m/s
視程10km以上
天気現象
全天の4割程度の雲 雲底高度 1400m
気温11℃
湿度50%
気圧1008hPa
METARUHSS 160630Z 25004MPS 9999 SCT046CB 11/01 Q1008 R19/CLRD70 NOSIG RMK QFE755/1007
過去の天気等 Google飛行場航空写真 Wunderground天気予報

過去48時間のMETAR

飛行場予報(TAF)
発表時間: 10/16 15:00 VLAT (10/16 05:00 UTC)
予報対象時間: 16日16時 VLAT ~ 17日22時 VLAT
風向・風速西南西 3m/s
視程10km以上
全天の4割程度の積乱雲 雲底高度 1220m
17日10時 VLAT ~ 17日12時 VLAT に徐々に
風向・風速西北西 3m/s
TAF UHSS 160500Z 1606/1712 25003MPS 9999 SCT040CB
BECMG 1700/1702 30003MPS